Aldsworth, United Kingdom
Current Conditions -  °F | °C
As of 1:50 PM on Monday 24 Nov 2014 (Local Time) from EGVN Reporting Station
Haze Haze  
Wind Chill: 45°   Ceiling: 22000
Heat Index: 45°   Visibility: 5mi
Dew Point: 39°   Wind: 1mph
Humidity: 81%   Direction: 60°ENE
Pressure: 30.33"   Gusts: NA
Location:  51.93°N, 1.72°W
Report Text: EGVN 241350Z 06001KT 8000 HZ BKN220 07/04 Q1027 NOSIG
Loading
Personal Weather Stations






























Interactive Weather Map New forecast layout! Learn more

10-Day Weather Forecast

Advertisements
Track Severe Weather on mobile